Terminal Aerodrome Forecast
Issued by NWS

Home | Current Version | Previous Version | Text Only | Print | Product List | Glossary On
Versions: 1 2 3 4 5 6 7 8 9 10 11 12 13 14 15
000
FTUS45 KABQ 211725
TAFAEG
TAF
KAEG 211725Z 2118/2218 29006KT P6SM SCT040 SCT070
      TEMPO 2118/2119 BKN015
     FM212100 27007KT P6SM VCSH BKN050
     FM220100 20006KT P6SM SCT070 SCT100
     FM220500 02005KT P6SM SCT090=

USA.gov is the U.S. government's official web portal to all federal, state and local government web resources and services.